createdAt,value
2019-01-26T00:00:07.128Z,21.07
2019-01-26T00:00:38.400Z,22.30
2019-01-26T00:01:09.627Z,22.15
2019-01-26T00:01:40.836Z,21.40
2019-01-26T00:02:12.151Z,22.95
2019-01-26T00:02:43.367Z,21.68
2019-01-26T00:03:14.619Z,22.22
2019-01-26T00:03:45.848Z,21.73
2019-01-26T00:04:17.078Z,21.17
2019-01-26T00:04:48.331Z,20.85
2019-01-26T00:05:19.581Z,20.72
2019-01-26T00:05:50.812Z,21.33
2019-01-26T00:06:22.034Z,20.23
2019-01-26T00:06:53.255Z,20.48
2019-01-26T00:07:24.472Z,20.15
2019-01-26T00:07:55.686Z,21.42
2019-01-26T00:08:26.922Z,19.05
2019-01-26T00:08:58.160Z,19.60
2019-01-26T00:09:29.372Z,19.87
2019-01-26T00:10:00.687Z,20.12
2019-01-26T00:10:31.916Z,18.30
2019-01-26T00:11:03.143Z,18.73
2019-01-26T00:11:34.391Z,17.67
2019-01-26T00:12:05.610Z,19.95
2019-01-26T00:12:36.815Z,18.92
2019-01-26T00:13:08.055Z,18.42
2019-01-26T00:13:39.271Z,16.60
2019-01-26T00:14:10.582Z,18.77
2019-01-26T00:14:41.816Z,18.07
2019-01-26T00:15:13.042Z,18.42
2019-01-26T00:15:44.326Z,18.80
2019-01-26T00:16:20.998Z,18.87
2019-01-26T00:16:48.504Z,20.27
2019-01-26T00:17:19.725Z,16.90
2019-01-26T00:17:51.028Z,16.55
2019-01-26T00:18:22.255Z,16.97
2019-01-26T00:18:53.492Z,17.95
2019-01-26T00:19:24.774Z,17.10
2019-01-26T00:19:55.978Z,17.55
2019-01-26T00:20:27.194Z,17.50
2019-01-26T00:20:58.406Z,17.23
2019-01-26T00:21:29.637Z,18.00
2019-01-26T00:22:00.856Z,17.60
2019-01-26T00:22:32.076Z,16.67
2019-01-26T00:23:03.340Z,16.85
2019-01-26T00:23:34.598Z,17.05
2019-01-26T00:24:06.063Z,18.10
2019-01-26T00:24:37.297Z,17.92
2019-01-26T00:25:08.517Z,17.62
2019-01-26T00:25:39.742Z,17.17
2019-01-26T00:26:10.983Z,16.27
2019-01-26T00:26:42.203Z,17.70
2019-01-26T00:27:13.455Z,17.07
2019-01-26T00:27:44.691Z,17.10
2019-01-26T00:28:15.878Z,17.05
2019-01-26T00:28:47.093Z,17.02
2019-01-26T00:29:18.304Z,16.67
2019-01-26T00:29:49.514Z,17.87
2019-01-26T00:30:20.825Z,17.10
2019-01-26T00:30:52.060Z,17.57
2019-01-26T00:31:23.281Z,16.52
2019-01-26T00:31:54.490Z,18.40
2019-01-26T00:32:25.700Z,17.82
2019-01-26T00:32:56.962Z,16.60
2019-01-26T00:33:28.173Z,17.67
2019-01-26T00:33:59.385Z,16.52
2019-01-26T00:34:30.682Z,17.30
2019-01-26T00:35:01.889Z,16.23
2019-01-26T00:35:33.137Z,17.75
2019-01-26T00:36:04.344Z,17.10
2019-01-26T00:36:35.579Z,16.67
2019-01-26T00:37:06.808Z,16.75
2019-01-26T00:37:38.032Z,17.02
2019-01-26T00:38:09.317Z,15.32
2019-01-26T00:38:40.516Z,15.53
2019-01-26T00:39:11.729Z,16.70
2019-01-26T00:39:43.007Z,17.30
2019-01-26T00:40:14.242Z,16.52
2019-01-26T00:40:45.522Z,16.30
2019-01-26T00:41:16.734Z,16.23
2019-01-26T00:41:47.957Z,17.42
2019-01-26T00:42:19.412Z,16.75
2019-01-26T00:42:50.625Z,16.45
2019-01-26T00:43:21.892Z,17.55
2019-01-26T00:43:53.108Z,17.35
2019-01-26T00:44:24.343Z,16.80
2019-01-26T00:44:55.566Z,17.02
2019-01-26T00:45:26.813Z,17.05
2019-01-26T00:45:58.035Z,16.95
2019-01-26T00:46:29.291Z,16.15
2019-01-26T00:47:00.522Z,17.42
2019-01-26T00:47:31.732Z,17.27
2019-01-26T00:48:02.949Z,18.07
2019-01-26T00:48:34.167Z,15.43
2019-01-26T00:49:05.374Z,14.43
2019-01-26T00:49:36.608Z,15.55
2019-01-26T00:50:07.822Z,15.98
2019-01-26T00:50:39.034Z,16.97
2019-01-26T00:51:10.242Z,15.93
2019-01-26T00:51:41.514Z,16.45
2019-01-26T00:52:12.778Z,16.48
2019-01-26T00:52:43.998Z,16.15
2019-01-26T00:53:15.224Z,15.60
2019-01-26T00:53:46.449Z,16.85
2019-01-26T00:54:17.664Z,16.55
2019-01-26T00:54:48.923Z,16.20
2019-01-26T00:55:20.148Z,17.45
2019-01-26T00:55:51.373Z,16.17
2019-01-26T00:56:22.595Z,14.55
2019-01-26T00:56:53.877Z,15.88
2019-01-26T00:57:25.090Z,15.35
2019-01-26T00:57:56.310Z,15.60
2019-01-26T00:58:27.516Z,16.40
2019-01-26T00:58:58.807Z,16.62
2019-01-26T00:59:30.141Z,16.32
2019-01-26T01:00:01.438Z,15.28
2019-01-26T01:00:32.685Z,15.95
2019-01-26T01:01:03.922Z,15.93
2019-01-26T01:01:35.150Z,15.85
2019-01-26T01:02:06.372Z,15.63
2019-01-26T01:02:37.638Z,14.70
2019-01-26T01:03:08.860Z,15.85
2019-01-26T01:03:40.113Z,13.40
2019-01-26T01:04:11.397Z,14.40
2019-01-26T01:04:42.611Z,14.25
2019-01-26T01:05:13.838Z,15.08
2019-01-26T01:05:45.073Z,14.85
2019-01-26T01:06:16.385Z,15.05
2019-01-26T01:06:47.648Z,14.68
2019-01-26T01:07:18.870Z,15.72
2019-01-26T01:07:50.130Z,15.45
2019-01-26T01:08:21.382Z,15.05
2019-01-26T01:08:52.615Z,15.75
2019-01-26T01:09:23.820Z,16.37
2019-01-26T01:09:55.049Z,16.55
2019-01-26T01:10:26.286Z,15.18
2019-01-26T01:10:57.559Z,15.78
2019-01-26T01:11:28.771Z,15.68
2019-01-26T01:12:00.063Z,16.45
2019-01-26T01:12:31.324Z,16.50
2019-01-26T01:13:02.590Z,15.95
2019-01-26T01:13:33.803Z,16.17
2019-01-26T01:14:05.012Z,16.32
2019-01-26T01:14:36.246Z,16.35
2019-01-26T01:15:07.463Z,16.20
2019-01-26T01:15:38.675Z,17.52
2019-01-26T01:16:09.911Z,17.62
2019-01-26T01:16:41.123Z,17.15
2019-01-26T01:17:12.356Z,17.65
2019-01-26T01:17:43.573Z,17.62
2019-01-26T01:18:14.782Z,16.15
2019-01-26T01:18:45.947Z,17.40
2019-01-26T01:19:17.149Z,18.48
2019-01-26T01:19:48.455Z,17.67
2019-01-26T01:20:19.690Z,19.23
2019-01-26T01:20:50.959Z,19.35
2019-01-26T01:21:22.212Z,19.17
2019-01-26T01:21:53.454Z,20.20
2019-01-26T01:22:24.729Z,18.90
2019-01-26T01:22:55.954Z,18.57
2019-01-26T01:23:27.166Z,17.52
2019-01-26T01:23:58.456Z,19.87
2019-01-26T01:24:29.685Z,18.75
2019-01-26T01:25:00.950Z,19.30
2019-01-26T01:25:32.185Z,20.45
2019-01-26T01:26:03.401Z,19.70
2019-01-26T01:26:34.615Z,20.05
2019-01-26T01:27:05.835Z,19.62
2019-01-26T01:27:37.088Z,20.57
2019-01-26T01:28:08.313Z,20.00
2019-01-26T01:28:39.520Z,19.85
2019-01-26T01:29:10.784Z,21.15
2019-01-26T01:29:42.061Z,20.23
2019-01-26T01:30:13.290Z,20.20
2019-01-26T01:30:44.496Z,20.82
2019-01-26T01:31:15.713Z,20.08
2019-01-26T01:31:46.946Z,21.27
2019-01-26T01:32:18.169Z,22.62
2019-01-26T01:32:49.431Z,21.85
2019-01-26T01:33:20.672Z,22.70
2019-01-26T01:33:51.873Z,22.95
2019-01-26T01:34:23.899Z,23.52
2019-01-26T01:34:55.182Z,24.57
2019-01-26T01:35:26.438Z,23.35
2019-01-26T01:35:57.694Z,23.60
2019-01-26T01:36:28.942Z,24.10
2019-01-26T01:37:00.231Z,23.98
2019-01-26T01:37:31.459Z,25.23
2019-01-26T01:38:02.695Z,24.10
2019-01-26T01:38:33.905Z,26.73
2019-01-26T01:39:05.124Z,27.87
2019-01-26T01:39:36.336Z,27.00
2019-01-26T01:40:07.536Z,27.70
2019-01-26T01:40:40.214Z,27.32
2019-01-26T01:41:11.749Z,27.65
2019-01-26T01:41:42.971Z,27.55
2019-01-26T01:42:14.207Z,26.65
2019-01-26T01:42:45.467Z,30.00
2019-01-26T01:43:16.683Z,28.42
2019-01-26T01:43:47.888Z,27.20
2019-01-26T01:44:19.113Z,30.55
2019-01-26T01:44:50.383Z,29.20
2019-01-26T01:45:21.601Z,29.07
2019-01-26T01:45:52.813Z,28.73
2019-01-26T01:46:24.071Z,28.32
2019-01-26T01:46:55.280Z,27.27
2019-01-26T01:47:26.510Z,28.40
2019-01-26T01:47:57.736Z,30.62
2019-01-26T01:48:29.010Z,29.98
2019-01-26T01:49:00.338Z,25.88
2019-01-26T01:49:31.532Z,26.95
2019-01-26T01:50:02.766Z,29.65
2019-01-26T01:50:33.975Z,28.45
2019-01-26T01:51:05.234Z,29.85
2019-01-26T01:51:36.494Z,30.32
2019-01-26T01:52:07.695Z,30.85
2019-01-26T01:52:38.953Z,31.12
2019-01-26T01:53:12.513Z,31.33
2019-01-26T01:53:43.774Z,31.65
2019-01-26T01:54:14.980Z,31.82
2019-01-26T01:54:46.198Z,31.42
2019-01-26T01:55:17.462Z,30.48
2019-01-26T01:55:49.694Z,30.97
2019-01-26T01:56:20.907Z,31.68
2019-01-26T01:56:52.120Z,31.82
2019-01-26T01:57:23.332Z,31.10
2019-01-26T01:57:54.545Z,30.57
2019-01-26T01:58:25.778Z,31.87
2019-01-26T01:58:57.066Z,31.17
2019-01-26T01:59:28.275Z,31.75
2019-01-26T01:59:59.514Z,30.15
2019-01-26T02:00:30.800Z,32.35
2019-01-26T02:01:02.042Z,31.17
2019-01-26T02:01:33.278Z,30.88
2019-01-26T02:02:04.494Z,32.80
2019-01-26T02:02:35.702Z,30.40
2019-01-26T02:03:06.910Z,30.17
2019-01-26T02:03:38.171Z,31.10
2019-01-26T02:04:09.394Z,29.52
2019-01-26T02:04:40.639Z,33.40
2019-01-26T02:05:11.875Z,32.30
2019-01-26T02:05:43.139Z,32.25
2019-01-26T02:06:14.410Z,32.35
2019-01-26T02:06:45.625Z,29.98
2019-01-26T02:07:16.882Z,29.60
2019-01-26T02:07:48.116Z,29.25
2019-01-26T02:08:19.324Z,29.18
2019-01-26T02:08:50.574Z,30.82
2019-01-26T02:09:21.816Z,30.23
2019-01-26T02:09:53.025Z,29.65
2019-01-26T02:10:24.266Z,30.00
2019-01-26T02:10:55.471Z,28.67
2019-01-26T02:11:26.696Z,29.30
2019-01-26T02:11:57.920Z,27.32
2019-01-26T02:12:29.190Z,28.60
2019-01-26T02:13:00.396Z,28.55
2019-01-26T02:13:31.618Z,28.23
2019-01-26T02:14:02.868Z,29.18
2019-01-26T02:14:34.083Z,26.30
2019-01-26T02:15:05.303Z,29.07
2019-01-26T02:15:36.535Z,28.60
2019-01-26T02:16:07.739Z,28.20
2019-01-26T02:16:39.009Z,27.40
2019-01-26T02:17:10.223Z,28.05
2019-01-26T02:17:41.481Z,27.37
2019-01-26T02:18:12.694Z,27.22
2019-01-26T02:18:43.927Z,28.10
2019-01-26T02:19:15.111Z,27.05
2019-01-26T02:19:46.328Z,27.70
2019-01-26T02:20:17.557Z,28.10
2019-01-26T02:20:48.790Z,26.75
2019-01-26T02:21:20.368Z,27.40
2019-01-26T02:21:51.583Z,26.82
2019-01-26T02:22:22.793Z,27.60
2019-01-26T02:22:54.069Z,27.05
2019-01-26T02:23:25.277Z,27.30
2019-01-26T02:23:56.508Z,26.30
2019-01-26T02:24:27.721Z,29.00
2019-01-26T02:24:58.995Z,28.45
2019-01-26T02:25:30.206Z,27.65
2019-01-26T02:26:01.484Z,27.27
2019-01-26T02:26:32.743Z,26.52
2019-01-26T02:27:03.956Z,27.30
2019-01-26T02:27:35.171Z,25.60
2019-01-26T02:28:06.419Z,25.50
2019-01-26T02:28:37.680Z,27.60
2019-01-26T02:29:08.916Z,26.37
2019-01-26T02:29:40.145Z,26.70
2019-01-26T02:30:11.360Z,27.42
2019-01-26T02:30:42.581Z,26.77
2019-01-26T02:31:13.842Z,25.45
2019-01-26T02:31:45.093Z,25.68
2019-01-26T02:32:16.289Z,24.72
2019-01-26T02:32:47.544Z,26.62
2019-01-26T02:33:18.752Z,27.17
2019-01-26T02:33:49.970Z,27.20
2019-01-26T02:34:21.204Z,26.87
2019-01-26T02:34:52.472Z,26.07
2019-01-26T02:35:23.711Z,26.20
2019-01-26T02:35:54.927Z,25.57
2019-01-26T02:36:26.156Z,25.90
2019-01-26T02:36:57.390Z,27.20
2019-01-26T02:37:29.727Z,26.40
2019-01-26T02:38:00.950Z,26.42
2019-01-26T02:38:32.168Z,26.42
2019-01-26T02:39:03.383Z,27.25
2019-01-26T02:39:34.610Z,26.60
2019-01-26T02:40:05.881Z,27.87
2019-01-26T02:40:37.090Z,26.52
2019-01-26T02:41:08.318Z,27.05
2019-01-26T02:41:39.581Z,23.83
2019-01-26T02:42:10.786Z,26.02
2019-01-26T02:42:42.045Z,23.95
2019-01-26T02:43:13.280Z,25.40
2019-01-26T02:43:44.507Z,25.45
2019-01-26T02:44:15.796Z,23.83
2019-01-26T02:44:47.002Z,24.05
2019-01-26T02:45:18.225Z,24.43
2019-01-26T02:45:49.468Z,23.57
2019-01-26T02:46:20.686Z,23.67
2019-01-26T02:46:57.893Z,23.60
2019-01-26T02:47:25.821Z,23.27
2019-01-26T02:47:57.053Z,24.57
2019-01-26T02:48:28.268Z,24.05
2019-01-26T02:48:59.484Z,23.80
2019-01-26T02:49:30.707Z,23.38
2019-01-26T02:50:01.956Z,23.00
2019-01-26T02:50:33.141Z,23.47
2019-01-26T02:51:04.382Z,23.05
2019-01-26T02:51:35.591Z,20.82
2019-01-26T02:52:06.876Z,21.50
2019-01-26T02:52:38.092Z,22.02
2019-01-26T02:53:09.346Z,22.10
2019-01-26T02:53:40.549Z,23.57
2019-01-26T02:54:11.754Z,20.75
2019-01-26T02:54:42.967Z,22.02
2019-01-26T02:55:14.202Z,21.37
2019-01-26T02:55:45.446Z,22.55
2019-01-26T02:56:16.743Z,22.27
2019-01-26T02:56:47.968Z,21.52
2019-01-26T02:57:19.254Z,23.02
2019-01-26T02:57:50.516Z,22.55
2019-01-26T02:58:21.750Z,22.65
2019-01-26T02:58:52.980Z,22.85
2019-01-26T02:59:24.191Z,22.05
2019-01-26T02:59:55.423Z,22.85
2019-01-26T03:00:26.644Z,22.22
2019-01-26T03:00:57.857Z,22.75
2019-01-26T03:01:29.103Z,22.02
2019-01-26T03:02:00.332Z,23.90
2019-01-26T03:02:31.592Z,22.25
2019-01-26T03:03:02.805Z,23.10
2019-01-26T03:03:34.030Z,24.72
2019-01-26T03:04:05.297Z,22.60
2019-01-26T03:04:36.539Z,23.83
2019-01-26T03:05:07.781Z,23.90
2019-01-26T03:05:38.993Z,23.02
2019-01-26T03:06:12.180Z,24.05
2019-01-26T03:06:43.499Z,23.42
2019-01-26T03:07:14.730Z,23.57
2019-01-26T03:07:45.938Z,23.35
2019-01-26T03:08:17.235Z,23.85
2019-01-26T03:08:48.470Z,23.25
2019-01-26T03:09:19.673Z,24.95
2019-01-26T03:09:50.900Z,23.67
2019-01-26T03:10:22.122Z,24.47
2019-01-26T03:10:53.335Z,24.25
2019-01-26T03:11:24.567Z,22.62
2019-01-26T03:11:55.786Z,22.70
2019-01-26T03:12:27.022Z,23.52
2019-01-26T03:12:58.285Z,23.38
2019-01-26T03:13:29.523Z,22.67
2019-01-26T03:14:00.738Z,23.65
2019-01-26T03:14:31.948Z,23.80
2019-01-26T03:15:03.204Z,22.00
2019-01-26T03:15:35.426Z,24.05
2019-01-26T03:16:06.717Z,23.00
2019-01-26T03:16:37.969Z,22.42
2019-01-26T03:17:09.318Z,22.48
2019-01-26T03:17:40.626Z,21.60
2019-01-26T03:18:11.860Z,22.90
2019-01-26T03:18:43.075Z,23.05
2019-01-26T03:19:14.305Z,22.17
2019-01-26T03:19:45.531Z,20.82
2019-01-26T03:20:16.793Z,21.70
2019-01-26T03:20:48.008Z,21.23
2019-01-26T03:21:19.256Z,21.55
2019-01-26T03:21:50.475Z,21.82
2019-01-26T03:22:21.762Z,20.50
2019-01-26T03:22:53.003Z,20.80
2019-01-26T03:23:24.268Z,20.23
2019-01-26T03:23:55.533Z,20.32
2019-01-26T03:24:26.797Z,19.75
2019-01-26T03:24:58.028Z,20.20
2019-01-26T03:25:29.245Z,20.75
2019-01-26T03:26:00.477Z,19.15
2019-01-26T03:26:31.744Z,19.27
2019-01-26T03:27:02.994Z,19.85
2019-01-26T03:27:34.231Z,19.17
2019-01-26T03:28:05.451Z,19.87
2019-01-26T03:28:36.681Z,20.40
2019-01-26T03:29:07.910Z,20.50
2019-01-26T03:29:39.212Z,19.73
2019-01-26T03:30:10.416Z,19.20
2019-01-26T03:30:41.654Z,18.17
2019-01-26T03:31:12.890Z,19.30
2019-01-26T03:31:44.139Z,18.20
2019-01-26T03:32:15.399Z,20.05
2019-01-26T03:32:46.614Z,20.30
2019-01-26T03:33:17.881Z,19.27
2019-01-26T03:33:49.108Z,19.60
2019-01-26T03:34:20.365Z,18.82
2019-01-26T03:34:51.594Z,19.42
2019-01-26T03:35:22.819Z,18.55
2019-01-26T03:35:54.051Z,19.85
2019-01-26T03:36:25.313Z,19.57
2019-01-26T03:36:56.553Z,19.40
2019-01-26T03:37:27.790Z,20.02
2019-01-26T03:37:59.084Z,20.25
2019-01-26T03:38:30.350Z,19.50
2019-01-26T03:39:01.529Z,20.30
2019-01-26T03:39:32.769Z,19.17
2019-01-26T03:40:03.982Z,20.15
2019-01-26T03:40:35.220Z,20.75
2019-01-26T03:41:06.432Z,20.45
2019-01-26T03:41:37.676Z,22.15
2019-01-26T03:42:08.927Z,20.92
2019-01-26T03:42:40.161Z,20.17
2019-01-26T03:43:13.659Z,21.00
2019-01-26T03:43:44.865Z,20.60
2019-01-26T03:44:16.098Z,20.85
2019-01-26T03:44:47.316Z,20.30
2019-01-26T03:45:18.535Z,21.20
2019-01-26T03:45:49.743Z,22.98
2019-01-26T03:46:23.146Z,21.68
2019-01-26T03:46:54.363Z,19.60
2019-01-26T03:47:25.571Z,20.23
2019-01-26T03:47:57.025Z,21.33
2019-01-26T03:48:28.247Z,21.10
2019-01-26T03:48:59.482Z,21.55
2019-01-26T03:49:30.696Z,21.23
2019-01-26T03:50:01.914Z,22.13
2019-01-26T03:50:33.180Z,21.48
2019-01-26T03:51:04.459Z,21.70
2019-01-26T03:51:35.668Z,23.25
2019-01-26T03:52:06.914Z,22.15
2019-01-26T03:52:38.120Z,21.60
2019-01-26T03:53:09.492Z,21.85
2019-01-26T03:53:40.707Z,22.82
2019-01-26T03:54:11.932Z,20.60
2019-01-26T03:54:43.191Z,21.10
2019-01-26T03:55:14.393Z,21.87
2019-01-26T03:55:45.631Z,22.22
2019-01-26T03:56:16.910Z,21.80
2019-01-26T03:56:48.175Z,21.12
2019-01-26T03:57:20.310Z,21.02
2019-01-26T03:57:51.745Z,22.22
2019-01-26T03:58:23.059Z,20.72
2019-01-26T03:58:54.273Z,20.10
2019-01-26T03:59:25.561Z,19.70
2019-01-26T03:59:56.772Z,21.48
2019-01-26T04:00:28.014Z,20.88
2019-01-26T04:00:59.256Z,20.27
2019-01-26T04:01:30.471Z,21.15
2019-01-26T04:02:01.703Z,19.87
2019-01-26T04:02:32.933Z,19.30
2019-01-26T04:03:04.147Z,20.37
2019-01-26T04:03:35.426Z,20.10
2019-01-26T04:04:06.672Z,19.52
2019-01-26T04:04:37.909Z,20.08
2019-01-26T04:05:09.123Z,18.48
2019-01-26T04:05:40.330Z,19.87
2019-01-26T04:06:11.572Z,18.23
2019-01-26T04:06:42.778Z,20.12
2019-01-26T04:07:13.998Z,19.65
2019-01-26T04:07:45.212Z,20.08
2019-01-26T04:08:16.464Z,19.25
2019-01-26T04:08:47.709Z,18.15
2019-01-26T04:09:18.922Z,19.17
2019-01-26T04:09:50.203Z,19.35
2019-01-26T04:10:21.443Z,19.40
2019-01-26T04:10:52.656Z,19.32
2019-01-26T04:11:23.870Z,20.12
2019-01-26T04:11:56.112Z,19.60
2019-01-26T04:12:27.344Z,19.70
2019-01-26T04:12:58.627Z,20.00
2019-01-26T04:13:29.840Z,19.98
2019-01-26T04:14:01.056Z,20.32
2019-01-26T04:14:32.330Z,19.80
2019-01-26T04:15:03.572Z,20.05
2019-01-26T04:15:34.820Z,20.57
2019-01-26T04:16:06.050Z,19.30
2019-01-26T04:16:37.279Z,20.68
2019-01-26T04:17:08.497Z,20.80
2019-01-26T04:17:39.720Z,18.95
2019-01-26T04:18:10.971Z,19.70
2019-01-26T04:18:42.188Z,19.92
2019-01-26T04:19:13.422Z,17.17
2019-01-26T04:19:44.641Z,19.37
2019-01-26T04:20:15.910Z,18.90
2019-01-26T04:20:47.159Z,18.82
2019-01-26T04:21:18.436Z,18.60
2019-01-26T04:21:49.647Z,19.65
2019-01-26T04:22:20.910Z,19.60
2019-01-26T04:22:52.195Z,18.73
2019-01-26T04:23:23.410Z,21.17
2019-01-26T04:23:54.674Z,24.45
2019-01-26T04:24:25.922Z,23.80
2019-01-26T04:24:57.199Z,22.17
2019-01-26T04:25:28.421Z,22.15
2019-01-26T04:25:59.642Z,21.87
2019-01-26T04:26:30.878Z,22.27
2019-01-26T04:27:02.132Z,22.37
2019-01-26T04:27:33.396Z,24.27
2019-01-26T04:28:04.608Z,22.77
2019-01-26T04:28:35.847Z,26.05
2019-01-26T04:29:07.085Z,27.22
2019-01-26T04:29:38.318Z,25.40
2019-01-26T04:30:09.556Z,26.05
2019-01-26T04:30:40.846Z,25.00
2019-01-26T04:31:12.072Z,24.77
2019-01-26T04:31:43.381Z,24.72
2019-01-26T04:32:14.616Z,25.15
2019-01-26T04:32:46.274Z,26.40
2019-01-26T04:33:17.528Z,25.30
2019-01-26T04:33:48.806Z,25.55
2019-01-26T04:34:20.073Z,26.17
2019-01-26T04:34:51.281Z,26.60
2019-01-26T04:35:22.506Z,26.68
2019-01-26T04:35:53.759Z,25.80
2019-01-26T04:36:25.008Z,25.40
2019-01-26T04:36:56.287Z,26.42
2019-01-26T04:37:27.545Z,25.20
2019-01-26T04:37:58.795Z,25.02
2019-01-26T04:38:30.025Z,24.32
2019-01-26T04:39:01.234Z,24.57
2019-01-26T04:39:32.472Z,25.43
2019-01-26T04:40:03.686Z,26.62
2019-01-26T04:40:34.913Z,25.50
2019-01-26T04:41:06.173Z,23.80
2019-01-26T04:41:37.393Z,25.77
2019-01-26T04:42:08.654Z,24.37
2019-01-26T04:42:39.870Z,24.80
2019-01-26T04:43:11.079Z,24.27
2019-01-26T04:43:42.301Z,23.40
2019-01-26T04:44:13.536Z,24.60
2019-01-26T04:44:44.750Z,24.00
2019-01-26T04:45:16.007Z,24.43
2019-01-26T04:45:47.275Z,24.07
2019-01-26T04:46:18.537Z,24.02
2019-01-26T04:46:49.795Z,24.80
2019-01-26T04:47:21.028Z,24.60
2019-01-26T04:47:52.268Z,23.35
2019-01-26T04:48:23.477Z,24.80
2019-01-26T04:48:54.695Z,25.30
2019-01-26T04:49:25.964Z,24.23
2019-01-26T04:49:57.264Z,23.25
2019-01-26T04:50:28.506Z,21.70
2019-01-26T04:50:59.745Z,23.30
2019-01-26T04:51:31.004Z,23.38
2019-01-26T04:52:02.237Z,22.98
2019-01-26T04:52:33.453Z,25.15
2019-01-26T04:53:04.715Z,24.02
2019-01-26T04:53:35.925Z,23.90
2019-01-26T04:54:07.201Z,26.17
2019-01-26T04:54:38.434Z,25.25
2019-01-26T04:55:09.687Z,25.50
2019-01-26T04:55:40.917Z,26.55
2019-01-26T04:56:12.148Z,25.90
2019-01-26T04:56:43.353Z,23.15
2019-01-26T04:57:14.591Z,25.50
2019-01-26T04:57:45.823Z,24.27
2019-01-26T04:58:17.040Z,24.92
2019-01-26T04:58:48.309Z,22.65
2019-01-26T04:59:19.537Z,24.25
2019-01-26T04:59:50.759Z,22.80
2019-01-26T05:00:22.012Z,23.98
2019-01-26T05:00:53.227Z,24.32
2019-01-26T05:01:24.485Z,23.87
2019-01-26T05:01:55.697Z,25.60
2019-01-26T05:02:26.914Z,23.87
2019-01-26T05:02:58.206Z,23.27
2019-01-26T05:03:29.468Z,23.98
2019-01-26T05:04:00.695Z,25.08
2019-01-26T05:04:31.925Z,24.65
2019-01-26T05:05:03.126Z,25.32
2019-01-26T05:05:34.360Z,22.70
2019-01-26T05:06:05.647Z,25.00
2019-01-26T05:06:36.872Z,24.30
2019-01-26T05:07:08.093Z,25.08
2019-01-26T05:07:39.309Z,23.30
2019-01-26T05:08:10.543Z,24.63
2019-01-26T05:08:41.802Z,23.90
2019-01-26T05:09:13.022Z,22.90
2019-01-26T05:09:44.235Z,23.18
2019-01-26T05:10:15.467Z,22.27
2019-01-26T05:10:46.672Z,22.65
2019-01-26T05:11:17.938Z,23.12
2019-01-26T05:11:49.150Z,23.25
2019-01-26T05:12:20.373Z,23.90
2019-01-26T05:12:51.578Z,23.62
2019-01-26T05:13:22.803Z,23.57
2019-01-26T05:13:54.056Z,23.50
2019-01-26T05:14:25.271Z,23.57
2019-01-26T05:14:56.523Z,24.10
2019-01-26T05:15:27.763Z,23.83
2019-01-26T05:15:59.004Z,23.38
2019-01-26T05:16:30.234Z,23.22
2019-01-26T05:17:01.462Z,24.07
2019-01-26T05:17:39.233Z,23.57
2019-01-26T05:18:06.638Z,23.90
2019-01-26T05:18:37.911Z,24.30
2019-01-26T05:19:09.210Z,23.83
2019-01-26T05:19:40.425Z,24.10
2019-01-26T05:20:11.661Z,25.30
2019-01-26T05:20:42.887Z,25.85
2019-01-26T05:21:14.141Z,24.12
2019-01-26T05:21:45.371Z,24.77
2019-01-26T05:22:16.581Z,23.95
2019-01-26T05:22:47.801Z,24.82
2019-01-26T05:23:19.060Z,23.42
2019-01-26T05:23:50.294Z,25.62
2019-01-26T05:24:21.509Z,23.45
2019-01-26T05:24:52.717Z,24.87
2019-01-26T05:25:23.961Z,25.17
2019-01-26T05:25:55.162Z,25.32
2019-01-26T05:26:26.429Z,25.40
2019-01-26T05:26:57.666Z,26.05
2019-01-26T05:27:28.888Z,25.45
2019-01-26T05:28:00.116Z,24.92
2019-01-26T05:28:31.394Z,27.00
2019-01-26T05:29:02.691Z,26.77
2019-01-26T05:29:33.918Z,26.30
2019-01-26T05:30:05.148Z,26.25
2019-01-26T05:30:36.378Z,25.08
2019-01-26T05:31:07.619Z,24.77
2019-01-26T05:31:38.877Z,23.90
2019-01-26T05:32:10.171Z,23.42
2019-01-26T05:32:41.421Z,21.97
2019-01-26T05:33:12.630Z,24.37
2019-01-26T05:33:43.909Z,24.10
2019-01-26T05:34:15.142Z,23.75
2019-01-26T05:34:46.382Z,24.47
2019-01-26T05:35:17.643Z,24.43
2019-01-26T05:35:48.881Z,22.55
2019-01-26T05:36:20.145Z,25.55
2019-01-26T05:36:51.357Z,26.45
2019-01-26T05:37:22.622Z,26.30
2019-01-26T05:37:53.882Z,26.90
2019-01-26T05:38:25.128Z,26.77
2019-01-26T05:38:56.383Z,27.35
2019-01-26T05:39:27.598Z,28.05
2019-01-26T05:39:58.808Z,26.50
2019-01-26T05:40:30.036Z,28.50
2019-01-26T05:41:01.305Z,28.52
2019-01-26T05:41:32.532Z,25.80
2019-01-26T05:42:03.781Z,26.77
2019-01-26T05:42:35.000Z,25.97
2019-01-26T05:43:06.303Z,26.27
2019-01-26T05:43:37.544Z,28.10
2019-01-26T05:44:08.788Z,28.32
2019-01-26T05:44:40.047Z,27.35
2019-01-26T05:45:11.271Z,25.70
2019-01-26T05:45:42.525Z,22.70
2019-01-26T05:46:13.860Z,25.12
2019-01-26T05:46:45.098Z,24.12
2019-01-26T05:47:16.310Z,24.43
2019-01-26T05:47:49.291Z,22.60
2019-01-26T05:48:20.469Z,25.02
2019-01-26T05:48:51.716Z,26.48
2019-01-26T05:49:22.942Z,26.90
2019-01-26T05:49:54.157Z,27.82
2019-01-26T05:50:25.541Z,26.50
2019-01-26T05:50:56.785Z,28.23
2019-01-26T05:51:28.023Z,26.82
2019-01-26T05:51:59.269Z,28.73
2019-01-26T05:52:30.516Z,27.22
2019-01-26T05:53:01.740Z,29.52
2019-01-26T05:53:33.048Z,29.15
2019-01-26T05:54:04.257Z,25.82
2019-01-26T05:54:35.482Z,27.42
2019-01-26T05:55:06.708Z,29.27
2019-01-26T05:55:37.990Z,26.62
2019-01-26T05:56:09.219Z,28.30
2019-01-26T05:56:40.482Z,28.52
2019-01-26T05:57:11.714Z,27.90
2019-01-26T05:57:42.953Z,30.48
2019-01-26T05:58:14.168Z,29.75
2019-01-26T05:58:45.422Z,30.25
2019-01-26T05:59:16.633Z,29.30
2019-01-26T05:59:47.869Z,31.62
2019-01-26T06:00:19.092Z,30.10
2019-01-26T06:00:50.365Z,30.80
2019-01-26T06:01:21.616Z,29.20
2019-01-26T06:01:52.839Z,32.38
2019-01-26T06:02:24.097Z,28.62
2019-01-26T06:02:55.345Z,32.42
2019-01-26T06:03:26.589Z,33.10
2019-01-26T06:03:57.847Z,33.02
2019-01-26T06:04:29.049Z,32.45
2019-01-26T06:05:00.313Z,33.48
2019-01-26T06:05:31.581Z,29.95
2019-01-26T06:06:02.830Z,28.85
2019-01-26T06:06:34.135Z,31.77
2019-01-26T06:07:05.398Z,32.93
2019-01-26T06:07:36.617Z,33.40
2019-01-26T06:08:07.830Z,32.93
2019-01-26T06:08:39.056Z,29.77
2019-01-26T06:09:10.379Z,31.73
2019-01-26T06:09:41.628Z,32.08
2019-01-26T06:10:12.867Z,31.65
2019-01-26T06:10:44.150Z,32.83
2019-01-26T06:11:15.478Z,35.73
2019-01-26T06:11:46.813Z,35.95
2019-01-26T06:12:18.146Z,31.57
2019-01-26T06:12:49.473Z,36.15
2019-01-26T06:13:20.774Z,37.58
2019-01-26T06:13:52.093Z,37.25
2019-01-26T06:14:23.390Z,35.78
2019-01-26T06:14:54.733Z,35.10
2019-01-26T06:15:26.064Z,34.03
2019-01-26T06:15:57.409Z,34.33
2019-01-26T06:16:30.421Z,34.48
2019-01-26T06:17:01.672Z,33.53
2019-01-26T06:17:33.039Z,35.85
2019-01-26T06:18:04.359Z,37.78
2019-01-26T06:18:35.671Z,34.58
2019-01-26T06:19:07.002Z,30.12
2019-01-26T06:19:38.374Z,32.67
2019-01-26T06:20:09.717Z,29.42
2019-01-26T06:20:41.074Z,29.10
2019-01-26T06:21:12.346Z,29.85
2019-01-26T06:21:44.725Z,32.08
2019-01-26T06:22:16.039Z,32.73
2019-01-26T06:22:47.402Z,28.70
2019-01-26T06:23:18.642Z,26.15
2019-01-26T06:23:50.031Z,30.17
2019-01-26T06:24:21.314Z,28.60
2019-01-26T06:24:52.593Z,29.07
2019-01-26T06:25:23.933Z,25.55
2019-01-26T06:25:55.310Z,34.65
2019-01-26T06:26:26.660Z,34.53
2019-01-26T06:26:58.894Z,30.25
2019-01-26T06:27:30.303Z,29.12
2019-01-26T06:28:01.702Z,34.20
2019-01-26T06:28:33.084Z,33.00
2019-01-26T06:29:04.494Z,33.18
2019-01-26T06:29:35.819Z,32.80
2019-01-26T06:30:07.319Z,34.03
2019-01-26T06:30:38.704Z,30.48
2019-01-26T06:31:10.343Z,29.70
2019-01-26T06:31:41.711Z,31.37
2019-01-26T06:32:13.090Z,34.80
2019-01-26T06:32:44.496Z,35.75
2019-01-26T06:33:15.946Z,36.35
2019-01-26T06:33:47.640Z,34.73
2019-01-26T06:34:18.952Z,36.25
2019-01-26T06:34:50.288Z,33.50
2019-01-26T06:35:21.616Z,32.65
2019-01-26T06:35:52.962Z,31.12
2019-01-26T06:36:24.340Z,32.23
2019-01-26T06:36:55.626Z,30.60
2019-01-26T06:37:26.912Z,36.33
2019-01-26T06:37:58.672Z,35.48
2019-01-26T06:38:30.030Z,32.35
2019-01-26T06:39:01.498Z,31.02
2019-01-26T06:39:32.959Z,33.50
2019-01-26T06:40:04.401Z,36.08
2019-01-26T06:40:35.707Z,36.13
2019-01-26T06:41:07.146Z,34.08
2019-01-26T06:41:38.608Z,29.67
2019-01-26T06:42:10.017Z,35.10
2019-01-26T06:42:41.429Z,35.80